map of TUU home
TUU - Airport
Location
City:  Tabuk, Saudi Arabia
Name:Prince Sultan bin Abdulaziz Airport
ICAO:OETB
IATA:TUU

Details
Type:Airport (Aerodrome, Airfield)
Use:Public/Civil
Latitude:2822'23"N (28.373056)
Longitude:3637'17"E (36.621389)
Elevation:2551 ft (778 m)
Variation:4.29E (WMM2015 magnetic declination)
0.07 annual change
Runways:2
Longest:10991 × 148 ft (3350 × 45 m), paved

Time
Time Zone:UTC+3
Local Time:

Weather
METAR:OETB 141200Z 35006KT CAVOK 19/02 Q1018 NOSIG
TAF:OETB 132300Z 1400/1506 32010KT CAVOK
TEMPO 1400/1408 4000 BR FEW020 PROB30
TEMPO 1403/1406 0800 FG

Related Locations
Nearby:
Farthest:RVV: 12029 mi / 19358 km
Raivavae, Tubuai Islands, Austral Islands, PF

Find:

   beyond  
but within

Other Information
Maps:
NOTAMs:
Links:
Sources:

  
flag of Saudi Arabia   

Sectional Chart

Flight Planning
at skyvector.com

Satellite Image

Google Maps Satellite view

 

Copyright © 2004-2017 Karl L. Swartz. All rights reserved.
The Great Circle Mapper name and logo are trademarks of the Great Circle Mapper.
All other trademarks mentioned herein belong to their respective owners.
Please see credits for attibutions and further copyright information.

  Follow gcmap on Facebook Follow gcmap on Twitter Follow gcmap on Google+ GCmap on LinkedIn

hCard Microformat

Geo Microformat